createdAt,value
2023-03-16T00:00:21.679Z,96922.54
2023-03-16T00:03:19.465Z,96926.23
2023-03-16T00:05:53.377Z,96931.92
2023-03-16T00:08:23.011Z,96932.64
2023-03-16T00:10:54.300Z,96940.85
2023-03-16T00:13:24.927Z,96936.17
2023-03-16T00:16:02.914Z,96938.84
2023-03-16T00:18:31.429Z,96945.00
2023-03-16T00:21:05.337Z,96947.86
2023-03-16T00:23:38.593Z,96952.95
2023-03-16T00:26:08.884Z,96948.69
2023-03-16T00:28:38.044Z,96947.85
2023-03-16T00:31:08.975Z,96949.48
2023-03-16T00:33:37.328Z,96948.19
2023-03-16T00:36:09.452Z,96944.92
2023-03-16T00:38:40.354Z,96955.28
2023-03-16T00:41:09.234Z,96953.29
2023-03-16T00:43:45.424Z,96949.91
2023-03-16T00:46:16.212Z,96946.22
2023-03-16T00:48:47.287Z,96949.10
2023-03-16T00:51:18.746Z,96954.88
2023-03-16T00:53:47.537Z,96950.77
2023-03-16T00:56:16.851Z,96943.30
2023-03-16T00:58:45.570Z,96946.33
2023-03-16T01:01:19.039Z,96952.70
2023-03-16T01:03:47.221Z,96950.17
2023-03-16T01:06:17.614Z,96951.21
2023-03-16T01:08:45.615Z,96952.47
2023-03-16T01:11:18.638Z,96954.66
2023-03-16T01:13:47.395Z,96953.73
2023-03-16T01:16:19.024Z,96957.19
2023-03-16T01:18:50.322Z,96961.33
2023-03-16T01:21:19.022Z,96959.59
2023-03-16T01:23:48.485Z,96959.76
2023-03-16T01:26:18.168Z,96958.98
2023-03-16T01:28:48.131Z,96958.78
2023-03-16T01:31:16.867Z,96959.98
2023-03-16T01:33:45.031Z,96964.42
2023-03-16T01:36:18.390Z,96965.48
2023-03-16T01:39:16.249Z,96968.20
2023-03-16T01:41:47.709Z,96963.25
2023-03-16T01:44:20.252Z,96971.78
2023-03-16T01:46:50.719Z,96966.03
2023-03-16T01:49:23.888Z,96973.39
2023-03-16T01:51:59.963Z,96977.42
2023-03-16T01:54:50.119Z,96976.52
2023-03-16T01:57:24.247Z,96983.69
2023-03-16T01:59:58.054Z,96987.77
2023-03-16T02:02:31.079Z,96992.46
2023-03-16T02:05:08.547Z,96995.41
2023-03-16T02:07:43.155Z,97000.15
2023-03-16T02:10:13.148Z,96995.41
2023-03-16T02:12:41.415Z,97003.80
2023-03-16T02:15:11.437Z,97002.28
2023-03-16T02:17:41.790Z,97002.22
2023-03-16T02:20:13.703Z,97005.20
2023-03-16T02:22:47.882Z,97007.18
2023-03-16T02:25:18.732Z,97011.83
2023-03-16T02:27:58.499Z,97017.46
2023-03-16T02:30:27.713Z,97023.19
2023-03-16T02:33:05.256Z,97016.40
2023-03-16T02:35:33.855Z,97021.86
2023-03-16T02:38:02.154Z,97025.69
2023-03-16T02:40:35.252Z,97022.60
2023-03-16T02:43:20.706Z,97024.59
2023-03-16T02:46:06.305Z,97026.02
2023-03-16T02:48:49.487Z,97028.64
2023-03-16T02:51:17.546Z,97035.55
2023-03-16T02:53:45.638Z,97035.52
2023-03-16T02:56:13.828Z,97037.35
2023-03-16T02:58:41.777Z,97040.42
2023-03-16T03:01:13.303Z,97043.45
2023-03-16T03:03:43.848Z,97043.46
2023-03-16T03:06:11.850Z,97043.41
2023-03-16T03:08:40.187Z,97048.14
2023-03-16T03:11:09.095Z,97051.52
2023-03-16T03:13:44.646Z,97057.20
2023-03-16T03:16:15.693Z,97061.59
2023-03-16T03:18:44.046Z,97062.79
2023-03-16T03:21:12.268Z,97067.92
2023-03-16T03:23:41.415Z,97066.48
2023-03-16T03:26:09.484Z,97064.77
2023-03-16T03:28:37.473Z,97070.02
2023-03-16T03:31:05.659Z,97072.42
2023-03-16T03:33:36.471Z,97074.02
2023-03-16T03:36:05.007Z,97081.98
2023-03-16T03:38:36.182Z,97082.27
2023-03-16T03:41:07.191Z,97081.84
2023-03-16T03:43:35.928Z,97089.23
2023-03-16T03:46:04.577Z,97091.58
2023-03-16T03:48:34.949Z,97096.39
2023-03-16T03:51:02.961Z,97103.95
2023-03-16T03:53:45.556Z,97103.33
2023-03-16T03:56:13.740Z,97101.33
2023-03-16T03:58:42.408Z,97099.13
2023-03-16T04:01:10.821Z,97099.48
2023-03-16T04:03:38.848Z,97106.67
2023-03-16T04:06:08.269Z,97110.54
2023-03-16T04:08:36.984Z,97111.48
2023-03-16T04:11:05.663Z,97118.48
2023-03-16T04:13:33.770Z,97123.63
2023-03-16T04:16:05.107Z,97126.21
2023-03-16T04:18:42.910Z,97130.61
2023-03-16T04:21:16.643Z,97135.15
2023-03-16T04:23:45.635Z,97143.15
2023-03-16T04:26:13.946Z,97143.33
2023-03-16T04:28:43.912Z,97146.60
2023-03-16T04:31:14.367Z,97148.21
2023-03-16T04:33:44.932Z,97151.39
2023-03-16T04:36:13.404Z,97156.69
2023-03-16T04:38:42.146Z,97158.86
2023-03-16T04:41:11.523Z,97159.55
2023-03-16T04:43:45.004Z,97163.51
2023-03-16T04:46:21.435Z,97173.77
2023-03-16T04:48:49.591Z,97172.66
2023-03-16T04:51:17.665Z,97176.95
2023-03-16T04:53:58.298Z,97178.09
2023-03-16T04:56:31.724Z,97177.78
2023-03-16T04:59:02.173Z,97178.57
2023-03-16T05:01:33.014Z,97181.59
2023-03-16T05:04:02.579Z,97184.46
2023-03-16T05:06:31.890Z,97187.23
2023-03-16T05:09:01.090Z,97193.50
2023-03-16T05:11:29.904Z,97202.16
2023-03-16T05:13:59.741Z,97200.60
2023-03-16T05:16:29.489Z,97203.78
2023-03-16T05:19:01.783Z,97207.74
2023-03-16T05:21:32.250Z,97215.90
2023-03-16T05:24:05.477Z,97221.48
2023-03-16T05:26:34.040Z,97223.61
2023-03-16T05:29:05.137Z,97226.84
2023-03-16T05:31:34.189Z,97231.59
2023-03-16T05:34:03.944Z,97231.35
2023-03-16T05:36:34.629Z,97234.22
2023-03-16T05:39:08.513Z,97233.89
2023-03-16T05:41:40.473Z,97233.98
2023-03-16T05:44:15.673Z,97231.14
2023-03-16T05:47:04.473Z,97231.23
2023-03-16T05:49:33.389Z,97234.05
2023-03-16T05:52:04.311Z,97239.35
2023-03-16T05:54:35.900Z,97241.52
2023-03-16T05:57:06.909Z,97242.73
2023-03-16T05:59:35.817Z,97250.56
2023-03-16T06:02:10.960Z,97255.19
2023-03-16T06:04:39.289Z,97259.96
2023-03-16T06:07:08.772Z,97266.25
2023-03-16T06:09:36.835Z,97272.77
2023-03-16T06:12:09.861Z,97274.65
2023-03-16T06:14:38.120Z,97277.02
2023-03-16T06:17:06.322Z,97280.66
2023-03-16T06:19:35.009Z,97286.02
2023-03-16T06:22:03.108Z,97287.59
2023-03-16T06:24:31.364Z,97287.06
2023-03-16T06:26:59.885Z,97294.56
2023-03-16T06:29:34.398Z,97305.50
2023-03-16T06:32:02.813Z,97305.06
2023-03-16T06:34:30.938Z,97309.38
2023-03-16T06:36:59.400Z,97314.80
2023-03-16T06:39:28.021Z,97315.55
2023-03-16T06:41:56.770Z,97320.25
2023-03-16T06:44:25.133Z,97327.47
2023-03-16T06:47:04.409Z,97330.54
2023-03-16T06:49:33.376Z,97339.09
2023-03-16T06:52:03.371Z,97344.81
2023-03-16T06:54:34.267Z,97347.67
2023-03-16T06:57:02.569Z,97352.55
2023-03-16T06:59:30.735Z,97354.72
2023-03-16T07:01:59.525Z,97358.02
2023-03-16T07:04:27.808Z,97358.83
2023-03-16T07:06:56.104Z,97359.81
2023-03-16T07:09:24.179Z,97363.17
2023-03-16T07:11:53.287Z,97365.30
2023-03-16T07:14:23.403Z,97368.94
2023-03-16T07:16:53.056Z,97368.13
2023-03-16T07:19:22.832Z,97372.71
2023-03-16T07:21:51.780Z,97374.72
2023-03-16T07:24:21.253Z,97375.90
2023-03-16T07:26:49.432Z,97378.10
2023-03-16T07:29:24.866Z,97379.81
2023-03-16T07:31:55.429Z,97382.61
2023-03-16T07:34:27.499Z,97386.70
2023-03-16T07:36:58.210Z,97390.61
2023-03-16T07:39:28.701Z,97396.30
2023-03-16T07:42:02.698Z,97396.92
2023-03-16T07:44:52.162Z,97404.50
2023-03-16T07:47:21.194Z,97404.84
2023-03-16T07:50:13.543Z,97408.98
2023-03-16T07:52:44.234Z,97412.20
2023-03-16T07:55:19.157Z,97413.84
2023-03-16T07:57:48.844Z,97422.63
2023-03-16T08:00:24.597Z,97423.98
2023-03-16T08:02:56.332Z,97425.09
2023-03-16T08:05:27.682Z,97426.89
2023-03-16T08:08:03.059Z,97433.39
2023-03-16T08:10:33.994Z,97434.00
2023-03-16T08:13:10.961Z,97439.55
2023-03-16T08:15:42.851Z,97443.11
2023-03-16T08:18:17.743Z,97442.13
2023-03-16T08:20:46.862Z,97443.86
2023-03-16T08:23:15.927Z,97446.23
2023-03-16T08:25:44.164Z,97447.28
2023-03-16T08:28:16.153Z,97450.40
2023-03-16T08:30:51.219Z,97450.55
2023-03-16T08:33:33.429Z,97453.76
2023-03-16T08:36:02.426Z,97452.39
2023-03-16T08:38:30.787Z,97458.66
2023-03-16T08:41:02.172Z,97458.29
2023-03-16T08:43:37.348Z,97464.92
2023-03-16T08:46:06.900Z,97465.05
2023-03-16T08:48:48.644Z,97466.56
2023-03-16T08:51:17.766Z,97471.41
2023-03-16T08:53:48.203Z,97474.75
2023-03-16T08:56:17.825Z,97480.75
2023-03-16T08:58:46.311Z,97480.03
2023-03-16T09:01:21.554Z,97483.00
2023-03-16T09:03:51.348Z,97481.24
2023-03-16T09:06:22.757Z,97487.46
2023-03-16T09:08:51.533Z,97489.17
2023-03-16T09:11:21.603Z,97488.87
2023-03-16T09:13:51.906Z,97495.75
2023-03-16T09:16:25.868Z,97494.60
2023-03-16T09:18:54.398Z,97498.99
2023-03-16T09:21:23.608Z,97500.05
2023-03-16T09:23:51.722Z,97510.12
2023-03-16T09:26:20.929Z,97513.52
2023-03-16T09:28:49.427Z,97518.17
2023-03-16T09:31:20.405Z,97519.94
2023-03-16T09:33:48.660Z,97528.98
2023-03-16T09:36:17.698Z,97529.27
2023-03-16T09:38:46.290Z,97535.18
2023-03-16T09:41:36.154Z,97532.86
2023-03-16T09:44:46.717Z,97539.18
2023-03-16T09:47:18.804Z,97546.82
2023-03-16T09:49:52.311Z,97546.20
2023-03-16T09:52:50.554Z,97547.09
2023-03-16T09:55:31.433Z,97553.73
2023-03-16T09:58:02.073Z,97559.69
2023-03-16T10:00:45.948Z,97556.81
2023-03-16T10:03:43.272Z,97560.24
2023-03-16T10:06:17.171Z,97556.87
2023-03-16T10:08:57.291Z,97560.37
2023-03-16T10:11:37.713Z,97560.96
2023-03-16T10:14:09.586Z,97562.77
2023-03-16T10:16:52.829Z,97566.46
2023-03-16T10:19:42.342Z,97568.86
2023-03-16T10:22:27.261Z,97572.77
2023-03-16T10:25:23.890Z,97573.83
2023-03-16T10:27:53.258Z,97570.87
2023-03-16T10:30:32.623Z,97573.73
2023-03-16T10:33:03.746Z,97582.42
2023-03-16T10:35:42.199Z,97584.59
2023-03-16T10:38:43.219Z,97572.69
2023-03-16T10:41:18.205Z,97586.08
2023-03-16T10:43:57.634Z,97585.35
2023-03-16T10:46:28.317Z,97591.02
2023-03-16T10:49:07.666Z,97589.91
2023-03-16T10:51:38.302Z,97594.52
2023-03-16T10:54:30.836Z,97604.31
2023-03-16T10:57:51.505Z,97597.48
2023-03-16T11:00:36.211Z,97600.27
2023-03-16T11:03:31.776Z,97599.20
2023-03-16T11:06:03.667Z,97595.33
2023-03-16T11:08:35.738Z,97598.42
2023-03-16T11:11:14.843Z,97602.19
2023-03-16T11:14:21.700Z,97607.50
2023-03-16T11:17:19.876Z,97607.13
2023-03-16T11:20:30.098Z,97612.35
2023-03-16T11:23:03.122Z,97601.80
2023-03-16T11:25:47.212Z,97611.94
2023-03-16T11:28:48.872Z,97618.11
2023-03-16T11:31:33.589Z,97624.87
2023-03-16T11:34:10.026Z,97626.20
2023-03-16T11:36:41.847Z,97624.89
2023-03-16T11:39:33.468Z,97625.75
2023-03-16T11:42:07.896Z,97624.15
2023-03-16T11:45:21.697Z,97627.34
2023-03-16T11:47:57.360Z,97623.02
2023-03-16T11:50:26.569Z,97631.17
2023-03-16T11:53:15.651Z,97633.84
2023-03-16T11:56:24.041Z,97633.33
2023-03-16T11:58:58.123Z,97635.14
2023-03-16T12:02:11.766Z,97635.87
2023-03-16T12:05:19.860Z,97636.89
2023-03-16T12:08:17.757Z,97644.70
2023-03-16T12:11:01.550Z,97649.71
2023-03-16T12:13:55.178Z,97650.77
2023-03-16T12:17:02.496Z,97649.64
2023-03-16T12:19:49.254Z,97654.71
2023-03-16T12:22:23.758Z,97656.90
2023-03-16T12:24:53.425Z,97655.79
2023-03-16T12:27:35.301Z,97663.16
2023-03-16T12:30:28.035Z,97666.13
2023-03-16T12:33:18.728Z,97666.02
2023-03-16T12:36:02.741Z,97667.05
2023-03-16T12:38:50.344Z,97668.65
2023-03-16T12:41:27.233Z,97667.30
2023-03-16T12:44:28.327Z,97667.39
2023-03-16T12:47:21.264Z,97667.90
2023-03-16T12:49:52.070Z,97672.77
2023-03-16T12:52:24.397Z,97672.44
2023-03-16T12:55:08.228Z,97674.14
2023-03-16T12:57:38.183Z,97680.30
2023-03-16T13:00:10.088Z,97679.07
2023-03-16T13:02:51.119Z,97683.14
2023-03-16T13:05:31.486Z,97683.62
2023-03-16T13:08:09.317Z,97684.40
2023-03-16T13:10:39.429Z,97685.35
2023-03-16T13:13:16.646Z,97686.58
2023-03-16T13:15:49.195Z,97691.02
2023-03-16T13:18:22.424Z,97694.44
2023-03-16T13:20:55.092Z,97693.63
2023-03-16T13:23:29.127Z,97700.83
2023-03-16T13:26:03.415Z,97701.27
2023-03-16T13:28:41.745Z,97704.55
2023-03-16T13:31:43.606Z,97711.48
2023-03-16T13:34:24.574Z,97710.13
2023-03-16T13:36:59.020Z,97711.98
2023-03-16T13:39:30.350Z,97705.10
2023-03-16T13:42:02.596Z,97707.45
2023-03-16T13:44:34.809Z,97707.05
2023-03-16T13:47:05.291Z,97706.63
2023-03-16T13:49:36.129Z,97711.44
2023-03-16T13:52:06.021Z,97712.13
2023-03-16T13:54:37.597Z,97716.30
2023-03-16T13:57:14.648Z,97723.35
2023-03-16T13:59:46.188Z,97725.48
2023-03-16T14:02:23.389Z,97730.65
2023-03-16T14:04:52.101Z,97729.72
2023-03-16T14:07:26.487Z,97731.91
2023-03-16T14:09:59.141Z,97738.02
2023-03-16T14:12:28.345Z,97733.75
2023-03-16T14:14:57.274Z,97739.58
2023-03-16T14:17:28.408Z,97749.20
2023-03-16T14:19:59.696Z,97748.45
2023-03-16T14:22:38.449Z,97745.86
2023-03-16T14:25:07.247Z,97756.36
2023-03-16T14:27:46.803Z,97763.33
2023-03-16T14:30:19.605Z,97768.67
2023-03-16T14:33:06.776Z,97769.41
2023-03-16T14:35:44.327Z,97770.10
2023-03-16T14:38:21.490Z,97771.71
2023-03-16T14:41:12.657Z,97778.30
2023-03-16T14:43:51.693Z,97780.73
2023-03-16T14:46:31.269Z,97786.11
2023-03-16T14:49:22.351Z,97786.34
2023-03-16T14:51:54.134Z,97787.48
2023-03-16T14:54:27.634Z,97794.55
2023-03-16T14:57:01.801Z,97794.73
2023-03-16T14:59:30.180Z,97797.23
2023-03-16T15:02:00.196Z,97802.11
2023-03-16T15:04:32.328Z,97799.34
2023-03-16T15:07:07.954Z,97803.30
2023-03-16T15:09:43.929Z,97799.67
2023-03-16T15:12:20.435Z,97801.36
2023-03-16T15:15:06.983Z,97808.02
2023-03-16T15:17:35.309Z,97810.42
2023-03-16T15:20:05.331Z,97809.90
2023-03-16T15:22:38.197Z,97810.54
2023-03-16T15:25:36.561Z,97814.12
2023-03-16T15:28:25.662Z,97816.64
2023-03-16T15:30:59.437Z,97819.02
2023-03-16T15:33:28.460Z,97822.91
2023-03-16T15:36:00.596Z,97822.46
2023-03-16T15:38:36.721Z,97826.86
2023-03-16T15:41:11.153Z,97826.28
2023-03-16T15:43:40.367Z,97830.59
2023-03-16T15:46:10.540Z,97834.25
2023-03-16T15:48:40.981Z,97839.03
2023-03-16T15:51:21.725Z,97843.38
2023-03-16T15:54:06.250Z,97847.48
2023-03-16T15:56:52.831Z,97845.88
2023-03-16T15:59:23.696Z,97850.08
2023-03-16T16:01:52.898Z,97852.52
2023-03-16T16:04:23.544Z,97859.05
2023-03-16T16:06:55.413Z,97854.46
2023-03-16T16:09:24.650Z,97851.30
2023-03-16T16:11:52.949Z,97858.25
2023-03-16T16:14:25.689Z,97863.16
2023-03-16T16:16:55.235Z,97870.55
2023-03-16T16:19:23.456Z,97877.00
2023-03-16T16:21:52.124Z,97876.98
2023-03-16T16:24:20.174Z,97882.77
2023-03-16T16:26:55.403Z,97889.35
2023-03-16T16:29:32.341Z,97887.36
2023-03-16T16:32:00.922Z,97893.27
2023-03-16T16:34:28.953Z,97895.35
2023-03-16T16:36:57.948Z,97901.44
2023-03-16T16:39:27.492Z,97904.52
2023-03-16T16:41:57.170Z,97899.94
2023-03-16T16:44:33.865Z,97909.30
2023-03-16T16:47:04.066Z,97914.84
2023-03-16T16:49:35.344Z,97918.34
2023-03-16T16:52:04.218Z,97916.91
2023-03-16T16:54:32.514Z,97921.21
2023-03-16T16:57:01.680Z,97926.99
2023-03-16T16:59:33.145Z,97933.91
2023-03-16T17:02:05.617Z,97938.54
2023-03-16T17:04:35.918Z,97941.55
2023-03-16T17:07:06.620Z,97943.23
2023-03-16T17:09:34.766Z,97943.75
2023-03-16T17:12:02.937Z,97946.40
2023-03-16T17:14:34.108Z,97952.43
2023-03-16T17:17:07.269Z,97955.20
2023-03-16T17:19:37.056Z,97952.57
2023-03-16T17:22:25.876Z,97955.97
2023-03-16T17:24:56.335Z,97962.27
2023-03-16T17:27:29.213Z,97959.65
2023-03-16T17:29:58.628Z,97966.52
2023-03-16T17:32:27.357Z,97969.38
2023-03-16T17:34:55.782Z,97972.20
2023-03-16T17:37:24.801Z,97977.25
2023-03-16T17:39:57.707Z,97978.27
2023-03-16T17:42:26.654Z,97978.83
2023-03-16T17:44:54.857Z,97976.31
2023-03-16T17:47:25.607Z,97978.27
2023-03-16T17:49:55.121Z,97984.64
2023-03-16T17:52:25.976Z,97985.25
2023-03-16T17:54:54.851Z,97988.89
2023-03-16T17:57:30.520Z,97993.88
2023-03-16T18:00:01.585Z,97992.98
2023-03-16T18:02:43.960Z,97997.77
2023-03-16T18:05:34.711Z,97998.98
2023-03-16T18:08:38.833Z,98002.61
2023-03-16T18:11:12.615Z,98002.41
2023-03-16T18:13:41.683Z,97998.13
2023-03-16T18:16:18.872Z,97995.92
2023-03-16T18:18:47.998Z,97995.70
2023-03-16T18:21:19.978Z,97996.39
2023-03-16T18:23:48.644Z,97993.81
2023-03-16T18:26:18.211Z,97995.83
2023-03-16T18:28:46.860Z,98000.31
2023-03-16T18:31:28.253Z,98001.00
2023-03-16T18:34:03.523Z,98000.55
2023-03-16T18:36:36.557Z,98000.79
2023-03-16T18:39:07.472Z,98000.60
2023-03-16T18:41:36.115Z,98009.65
2023-03-16T18:44:24.048Z,98010.99
2023-03-16T18:46:57.726Z,98014.55
2023-03-16T18:49:31.943Z,98016.55
2023-03-16T18:52:01.030Z,98015.63
2023-03-16T18:54:35.537Z,98020.37
2023-03-16T18:57:10.552Z,98020.95
2023-03-16T18:59:38.749Z,98020.48
2023-03-16T19:02:35.280Z,98025.19
2023-03-16T19:05:25.382Z,98028.37
2023-03-16T19:07:53.535Z,98032.67
2023-03-16T19:10:32.447Z,98034.38
2023-03-16T19:13:00.527Z,98039.52
2023-03-16T19:15:32.179Z,98044.05
2023-03-16T19:18:00.751Z,98046.95
2023-03-16T19:20:32.175Z,98051.20
2023-03-16T19:23:27.198Z,98046.45
2023-03-16T19:25:56.197Z,98048.17
2023-03-16T19:28:39.730Z,98054.16
2023-03-16T19:31:29.363Z,98056.83
2023-03-16T19:33:58.593Z,98067.44
2023-03-16T19:36:31.259Z,98064.75
2023-03-16T19:39:00.019Z,98062.73
2023-03-16T19:41:34.621Z,98071.41
2023-03-16T19:44:14.258Z,98075.85
2023-03-16T19:46:43.212Z,98071.84
2023-03-16T19:49:22.942Z,98073.95
2023-03-16T19:51:53.521Z,98080.29
2023-03-16T19:54:33.637Z,98078.11
2023-03-16T19:57:07.579Z,98083.33
2023-03-16T19:59:36.060Z,98081.89
2023-03-16T20:02:37.943Z,98085.98
2023-03-16T20:05:07.757Z,98087.95
2023-03-16T20:07:38.395Z,98085.25
2023-03-16T20:10:08.301Z,98084.94
2023-03-16T20:12:39.028Z,98092.00
2023-03-16T20:15:15.634Z,98099.36
2023-03-16T20:17:44.868Z,98095.42
2023-03-16T20:20:23.193Z,98092.46
2023-03-16T20:22:55.313Z,98095.66
2023-03-16T20:25:24.934Z,98099.66
2023-03-16T20:28:01.317Z,98099.25
2023-03-16T20:30:31.054Z,98102.14
2023-03-16T20:32:59.205Z,98101.04
2023-03-16T20:35:32.505Z,98106.98
2023-03-16T20:38:01.799Z,98107.64
2023-03-16T20:40:30.220Z,98111.98
2023-03-16T20:43:01.054Z,98114.56
2023-03-16T20:45:30.693Z,98117.38
2023-03-16T20:47:59.041Z,98121.09
2023-03-16T20:50:30.004Z,98128.47
2023-03-16T20:52:58.168Z,98129.21
2023-03-16T20:55:29.417Z,98134.76
2023-03-16T20:57:57.649Z,98137.16
2023-03-16T21:00:37.907Z,98143.41
2023-03-16T21:03:17.576Z,98144.83
2023-03-16T21:05:46.413Z,98141.36
2023-03-16T21:08:15.919Z,98139.36
2023-03-16T21:10:46.289Z,98140.19
2023-03-16T21:13:21.681Z,98139.15
2023-03-16T21:15:50.813Z,98141.08
2023-03-16T21:18:21.629Z,98143.43
2023-03-16T21:20:50.832Z,98143.41
2023-03-16T21:23:22.138Z,98147.32
2023-03-16T21:25:57.832Z,98145.09
2023-03-16T21:28:29.019Z,98142.70
2023-03-16T21:30:58.928Z,98147.22
2023-03-16T21:33:39.046Z,98148.61
2023-03-16T21:36:14.705Z,98146.91
2023-03-16T21:38:44.625Z,98146.82
2023-03-16T21:41:14.085Z,98148.84
2023-03-16T21:43:43.281Z,98155.19
2023-03-16T21:46:18.446Z,98159.57
2023-03-16T21:48:49.722Z,98164.23
2023-03-16T21:51:20.183Z,98160.80
2023-03-16T21:53:49.740Z,98158.45
2023-03-16T21:56:22.622Z,98157.02
2023-03-16T21:58:52.549Z,98159.46
2023-03-16T22:01:29.777Z,98162.57
2023-03-16T22:04:17.566Z,98168.41
2023-03-16T22:06:46.065Z,98166.87
2023-03-16T22:09:19.501Z,98166.52
2023-03-16T22:11:47.741Z,98167.83
2023-03-16T22:14:16.843Z,98171.51
2023-03-16T22:16:45.088Z,98172.13
2023-03-16T22:19:18.250Z,98172.58
2023-03-16T22:21:47.316Z,98173.49
2023-03-16T22:24:18.321Z,98179.44
2023-03-16T22:26:48.810Z,98177.42
2023-03-16T22:29:28.508Z,98180.92
2023-03-16T22:32:03.152Z,98185.30
2023-03-16T22:34:38.627Z,98191.31
2023-03-16T22:37:06.901Z,98188.00
2023-03-16T22:39:38.423Z,98184.52
2023-03-16T22:42:26.076Z,98182.27
2023-03-16T22:44:55.855Z,98188.46
2023-03-16T22:47:26.535Z,98197.28
2023-03-16T22:49:55.409Z,98193.86
2023-03-16T22:52:30.834Z,98196.67
2023-03-16T22:55:01.897Z,98199.94
2023-03-16T22:57:31.472Z,98203.86
2023-03-16T23:00:07.646Z,98207.86
2023-03-16T23:02:36.147Z,98209.75
2023-03-16T23:05:21.143Z,98213.81
2023-03-16T23:07:49.221Z,98218.58
2023-03-16T23:10:19.259Z,98222.31
2023-03-16T23:12:49.424Z,98225.88
2023-03-16T23:15:26.714Z,98230.14
2023-03-16T23:17:56.415Z,98230.85
2023-03-16T23:20:31.689Z,98231.69
2023-03-16T23:22:59.843Z,98236.59
2023-03-16T23:25:27.804Z,98235.54
2023-03-16T23:27:57.196Z,98241.22
2023-03-16T23:30:25.888Z,98242.41
2023-03-16T23:32:55.516Z,98244.84
2023-03-16T23:35:32.527Z,98245.28
2023-03-16T23:38:00.743Z,98251.34
2023-03-16T23:40:30.105Z,98253.34
2023-03-16T23:43:00.805Z,98251.08
2023-03-16T23:45:42.049Z,98258.34
2023-03-16T23:48:19.669Z,98261.48
2023-03-16T23:50:50.914Z,98258.14
2023-03-16T23:53:19.998Z,98261.86
2023-03-16T23:55:48.255Z,98260.39
2023-03-16T23:58:16.578Z,98259.70
